createdAt,value
2023-02-08T00:00:12.730Z,1.41
2023-02-08T00:02:39.540Z,1.17
2023-02-08T00:05:07.018Z,2.11
2023-02-08T00:07:33.811Z,1.64
2023-02-08T00:10:01.904Z,1.25
2023-02-08T00:12:28.654Z,1.17
2023-02-08T00:14:55.376Z,0.89
2023-02-08T00:17:22.081Z,1.40
2023-02-08T00:19:48.858Z,1.43
2023-02-08T00:22:15.588Z,1.31
2023-02-08T00:24:42.329Z,1.31
2023-02-08T00:27:10.468Z,1.05
2023-02-08T00:29:37.191Z,1.08
2023-02-08T00:32:04.575Z,1.01
2023-02-08T00:34:31.450Z,1.58
2023-02-08T00:37:00.616Z,1.45
2023-02-08T00:39:27.402Z,1.13
2023-02-08T00:41:54.261Z,1.66
2023-02-08T00:44:24.975Z,2.07
2023-02-08T00:46:51.854Z,1.46
2023-02-08T00:49:18.749Z,1.52
2023-02-08T00:51:45.521Z,1.45
2023-02-08T00:54:13.889Z,1.20
2023-02-08T00:56:40.636Z,1.21
2023-02-08T00:59:07.437Z,0.78
2023-02-08T01:01:35.632Z,0.73
2023-02-08T01:04:02.765Z,0.96
2023-02-08T01:06:29.503Z,0.72
2023-02-08T01:08:56.254Z,1.47
2023-02-08T01:11:24.971Z,1.49
2023-02-08T01:13:52.660Z,1.46
2023-02-08T01:16:21.432Z,1.46
2023-02-08T01:18:52.067Z,1.30
2023-02-08T01:21:21.293Z,1.24
2023-02-08T01:23:48.624Z,0.81
2023-02-08T01:26:16.911Z,1.00
2023-02-08T01:28:44.218Z,0.88
2023-02-08T01:31:12.640Z,0.90
2023-02-08T01:33:39.569Z,1.72
2023-02-08T01:36:08.967Z,1.42
2023-02-08T01:38:36.824Z,1.36
2023-02-08T01:41:05.192Z,1.54
2023-02-08T01:43:34.115Z,1.19
2023-02-08T01:46:01.358Z,0.93
2023-02-08T01:48:31.882Z,0.76
2023-02-08T01:51:03.307Z,0.70
2023-02-08T01:53:34.457Z,0.59
2023-02-08T01:56:04.703Z,0.51
2023-02-08T01:58:36.604Z,0.42
2023-02-08T02:01:04.276Z,0.53
2023-02-08T02:03:31.307Z,0.33
2023-02-08T02:06:03.402Z,0.88
2023-02-08T02:08:31.905Z,0.82
2023-02-08T02:10:58.737Z,0.52
2023-02-08T02:13:27.404Z,0.42
2023-02-08T02:15:54.966Z,0.76
2023-02-08T02:18:25.835Z,0.81
2023-02-08T02:21:21.999Z,0.99
2023-02-08T02:24:33.745Z,1.17
2023-02-08T02:27:25.360Z,0.75
2023-02-08T02:30:33.940Z,0.88
2023-02-08T02:33:30.989Z,0.93
2023-02-08T02:36:02.983Z,0.79
2023-02-08T02:38:44.219Z,1.06
2023-02-08T02:41:21.232Z,0.73
2023-02-08T02:43:56.420Z,1.40
2023-02-08T02:46:27.595Z,1.62
2023-02-08T02:49:02.642Z,1.83
2023-02-08T02:51:36.098Z,1.43
2023-02-08T02:54:07.080Z,0.97
2023-02-08T02:56:38.392Z,1.85
2023-02-08T02:59:10.624Z,2.18
2023-02-08T03:01:38.203Z,1.94
2023-02-08T03:04:14.784Z,1.76
2023-02-08T03:06:55.006Z,2.30
2023-02-08T03:09:46.019Z,2.13
2023-02-08T03:12:23.992Z,1.59
2023-02-08T03:14:57.947Z,1.51
2023-02-08T03:17:46.973Z,1.37
2023-02-08T03:20:19.858Z,1.03
2023-02-08T03:22:58.861Z,2.17
2023-02-08T03:25:32.109Z,1.75
2023-02-08T03:28:05.825Z,3.54
2023-02-08T03:33:07.005Z,1.99
2023-02-08T03:35:40.377Z,2.00
2023-02-08T03:38:11.065Z,1.64
2023-02-08T03:40:41.839Z,1.19
2023-02-08T03:43:14.824Z,1.20
2023-02-08T03:45:46.484Z,1.81
2023-02-08T03:48:16.102Z,4.44
2023-02-08T03:50:49.360Z,3.18
2023-02-08T03:53:19.196Z,3.34
2023-02-08T03:55:48.802Z,4.54
2023-02-08T03:58:22.022Z,2.89
2023-02-08T04:00:54.681Z,2.62
2023-02-08T04:03:25.990Z,3.04
2023-02-08T04:05:54.624Z,2.59
2023-02-08T04:08:21.750Z,1.90
2023-02-08T04:10:48.797Z,2.28
2023-02-08T04:13:15.572Z,1.86
2023-02-08T04:15:42.716Z,1.61
2023-02-08T04:18:09.476Z,2.29
2023-02-08T04:20:36.294Z,2.19
2023-02-08T04:23:04.445Z,2.60
2023-02-08T04:25:31.156Z,6.40
2023-02-08T04:27:57.978Z,15.96
2023-02-08T04:30:24.725Z,14.00
2023-02-08T04:32:51.469Z,7.90
2023-02-08T04:35:18.388Z,5.28
2023-02-08T04:37:45.166Z,4.19
2023-02-08T04:40:13.423Z,4.17
2023-02-08T04:42:40.143Z,2.92
2023-02-08T04:45:07.755Z,2.05
2023-02-08T04:47:34.488Z,1.99
2023-02-08T04:50:01.257Z,1.92
2023-02-08T04:52:29.137Z,1.51
2023-02-08T04:54:55.926Z,1.52
2023-02-08T04:57:24.085Z,1.77
2023-02-08T04:59:50.893Z,2.08
2023-02-08T05:02:17.725Z,2.45
2023-02-08T05:04:44.604Z,2.46
2023-02-08T05:07:11.392Z,2.08
2023-02-08T05:09:38.134Z,2.16
2023-02-08T05:12:05.341Z,2.00
2023-02-08T05:14:33.468Z,1.90
2023-02-08T05:17:00.366Z,1.89
2023-02-08T05:19:27.173Z,3.62
2023-02-08T05:21:53.987Z,2.82
2023-02-08T05:24:20.739Z,2.24
2023-02-08T05:26:47.480Z,1.82
2023-02-08T05:29:14.374Z,3.57
2023-02-08T05:31:42.649Z,2.46
2023-02-08T05:34:09.457Z,1.63
2023-02-08T05:36:36.279Z,0.96
2023-02-08T05:39:03.108Z,1.21
2023-02-08T05:41:29.842Z,1.43
2023-02-08T05:43:56.650Z,1.79
2023-02-08T05:46:23.435Z,2.22
2023-02-08T05:48:51.642Z,2.01
2023-02-08T05:51:18.376Z,1.60
2023-02-08T05:53:45.187Z,3.18
2023-02-08T05:56:12.119Z,5.87
2023-02-08T05:58:38.861Z,4.81
2023-02-08T06:01:08.764Z,5.03
2023-02-08T06:03:35.553Z,5.07
2023-02-08T06:06:04.459Z,3.73
2023-02-08T06:08:31.327Z,2.51
2023-02-08T06:10:58.168Z,2.23
2023-02-08T06:13:25.162Z,2.55
2023-02-08T06:15:51.990Z,2.12
2023-02-08T06:18:18.779Z,4.34
2023-02-08T06:20:45.584Z,4.28
2023-02-08T06:23:13.794Z,3.66
2023-02-08T06:25:40.574Z,2.46
2023-02-08T06:28:07.480Z,1.65
2023-02-08T06:30:34.206Z,1.27
2023-02-08T06:33:01.017Z,1.10
2023-02-08T06:35:27.755Z,1.24
2023-02-08T06:37:54.501Z,1.65
2023-02-08T06:40:22.580Z,2.16
2023-02-08T06:42:49.392Z,1.94
2023-02-08T06:45:16.328Z,2.36
2023-02-08T06:47:43.045Z,1.96
2023-02-08T06:50:10.744Z,1.95
2023-02-08T06:52:37.689Z,2.50
2023-02-08T06:55:05.146Z,3.39
2023-02-08T06:57:33.269Z,3.20
2023-02-08T07:00:00.016Z,2.50
2023-02-08T07:02:26.807Z,2.27
2023-02-08T07:04:56.213Z,2.25
2023-02-08T07:07:23.114Z,2.00
2023-02-08T07:09:49.968Z,1.83
2023-02-08T07:12:16.897Z,1.76
2023-02-08T07:14:45.080Z,1.70
2023-02-08T07:17:12.721Z,1.28
2023-02-08T07:19:40.117Z,1.46
2023-02-08T07:22:07.586Z,1.47
2023-02-08T07:24:35.304Z,1.99
2023-02-08T07:27:02.310Z,2.73
2023-02-08T07:29:30.437Z,2.49
2023-02-08T07:32:00.061Z,3.59
2023-02-08T07:34:29.460Z,12.07
2023-02-08T07:36:57.235Z,16.75
2023-02-08T07:39:25.103Z,11.77
2023-02-08T07:41:52.330Z,8.68
2023-02-08T07:44:19.208Z,6.07
2023-02-08T07:46:46.244Z,3.80
2023-02-08T07:49:14.855Z,2.75
2023-02-08T07:51:41.726Z,2.99
2023-02-08T07:54:08.467Z,2.40
2023-02-08T07:56:35.291Z,2.80
2023-02-08T07:59:02.013Z,2.62
2023-02-08T08:01:29.007Z,2.45
2023-02-08T08:03:55.876Z,3.82
2023-02-08T08:06:24.093Z,4.86
2023-02-08T08:08:51.081Z,3.32
2023-02-08T08:11:19.241Z,3.09
2023-02-08T08:13:46.057Z,4.09
2023-02-08T08:16:13.282Z,3.36
2023-02-08T08:18:40.157Z,3.10
2023-02-08T08:21:08.081Z,3.17
2023-02-08T08:23:36.660Z,2.91
2023-02-08T08:26:07.932Z,3.06
2023-02-08T08:28:34.737Z,2.90
2023-02-08T08:31:01.682Z,3.75
2023-02-08T08:33:28.529Z,4.31
2023-02-08T08:35:55.268Z,3.98
2023-02-08T08:38:22.057Z,4.28
2023-02-08T08:40:50.145Z,4.14
2023-02-08T08:43:16.963Z,3.57
2023-02-08T08:45:43.788Z,4.09
2023-02-08T08:48:10.556Z,4.94
2023-02-08T08:50:37.430Z,5.36
2023-02-08T08:53:04.636Z,7.15
2023-02-08T08:55:31.569Z,7.00
2023-02-08T08:57:59.741Z,7.07
2023-02-08T09:00:26.511Z,6.93
2023-02-08T09:02:53.377Z,6.96
2023-02-08T09:05:20.176Z,5.98
2023-02-08T09:07:46.883Z,7.15
2023-02-08T09:10:13.663Z,6.26
2023-02-08T09:12:40.605Z,5.30
2023-02-08T09:15:09.301Z,5.47
2023-02-08T09:17:36.056Z,7.48
2023-02-08T09:20:04.846Z,5.64
2023-02-08T09:22:31.847Z,5.17
2023-02-08T09:24:58.768Z,5.49
2023-02-08T09:27:25.549Z,6.99
2023-02-08T09:29:52.599Z,6.78
2023-02-08T09:32:20.712Z,6.09
2023-02-08T09:34:47.503Z,5.69
2023-02-08T09:37:14.418Z,7.09
2023-02-08T09:39:41.258Z,7.76
2023-02-08T09:42:20.361Z,7.23
2023-02-08T09:45:01.297Z,7.61
2023-02-08T09:47:34.656Z,7.95
2023-02-08T09:50:05.378Z,7.75
2023-02-08T09:52:37.505Z,8.56
2023-02-08T09:55:19.580Z,7.13
2023-02-08T09:57:48.826Z,9.15
2023-02-08T10:00:19.371Z,8.46
2023-02-08T10:02:49.309Z,8.47
2023-02-08T10:05:20.803Z,7.45
2023-02-08T10:07:47.988Z,8.10
2023-02-08T10:10:19.732Z,7.55
2023-02-08T10:12:57.018Z,10.46
2023-02-08T10:15:35.504Z,11.16
2023-02-08T10:18:25.220Z,13.21
2023-02-08T10:21:15.480Z,12.84
2023-02-08T10:24:01.007Z,12.72
2023-02-08T10:26:35.688Z,11.97
2023-02-08T10:29:21.296Z,12.17
2023-02-08T10:32:03.261Z,10.97
2023-02-08T10:34:42.393Z,11.15
2023-02-08T10:37:14.096Z,11.19
2023-02-08T10:39:41.491Z,11.85
2023-02-08T10:42:14.055Z,13.05
2023-02-08T10:44:53.971Z,15.51
2023-02-08T10:47:33.436Z,15.44
2023-02-08T10:50:05.202Z,13.74
2023-02-08T10:52:32.495Z,13.18
2023-02-08T10:54:59.311Z,13.88
2023-02-08T10:57:28.823Z,13.44
2023-02-08T11:00:00.825Z,13.24
2023-02-08T11:02:32.090Z,15.12
2023-02-08T11:05:02.230Z,16.27
2023-02-08T11:07:29.702Z,15.90
2023-02-08T11:10:14.386Z,14.84
2023-02-08T11:12:42.131Z,16.47
2023-02-08T11:15:22.603Z,16.33
2023-02-08T11:17:54.340Z,16.22
2023-02-08T11:20:28.903Z,15.44
2023-02-08T11:22:55.778Z,14.81
2023-02-08T11:25:35.981Z,15.09
2023-02-08T11:28:03.065Z,14.41
2023-02-08T11:30:30.196Z,15.62
2023-02-08T11:33:15.860Z,16.34
2023-02-08T11:36:06.639Z,17.10
2023-02-08T11:38:36.552Z,16.52
2023-02-08T11:41:05.447Z,16.14
2023-02-08T11:43:34.884Z,15.58
2023-02-08T11:46:04.674Z,16.21
2023-02-08T11:48:40.944Z,15.61
2023-02-08T11:51:11.985Z,14.80
2023-02-08T11:53:40.762Z,17.50
2023-02-08T11:56:17.075Z,17.55
2023-02-08T11:59:00.390Z,20.45
2023-02-08T12:01:28.840Z,17.30
2023-02-08T12:03:57.928Z,17.75
2023-02-08T12:06:50.021Z,15.85
2023-02-08T12:09:29.461Z,15.58
2023-02-08T12:12:06.581Z,16.27
2023-02-08T12:14:47.011Z,14.23
2023-02-08T12:17:57.524Z,15.96
2023-02-08T12:20:41.407Z,17.36
2023-02-08T12:23:27.540Z,16.50
2023-02-08T12:26:04.397Z,14.56
2023-02-08T12:28:43.377Z,15.19
2023-02-08T12:31:23.289Z,14.96
2023-02-08T12:34:03.077Z,12.72
2023-02-08T12:36:45.056Z,10.89
2023-02-08T12:39:26.834Z,10.06
2023-02-08T12:42:24.199Z,10.29
2023-02-08T12:45:08.516Z,9.95
2023-02-08T12:50:34.369Z,11.82
2023-02-08T12:53:05.899Z,9.73
2023-02-08T12:55:38.657Z,9.75
2023-02-08T12:58:19.757Z,8.95
2023-02-08T13:00:48.322Z,9.70
2023-02-08T13:03:27.188Z,7.71
2023-02-08T13:06:02.094Z,6.63
2023-02-08T13:08:35.093Z,6.41
2023-02-08T13:11:19.506Z,6.46
2023-02-08T13:13:56.707Z,10.67
2023-02-08T13:16:26.265Z,13.88
2023-02-08T13:18:55.494Z,14.16
2023-02-08T13:21:28.234Z,13.90
2023-02-08T13:23:55.913Z,13.63
2023-02-08T13:26:26.848Z,15.25
2023-02-08T13:28:56.024Z,15.78
2023-02-08T13:31:25.725Z,15.01
2023-02-08T13:34:01.929Z,13.91
2023-02-08T13:36:32.699Z,14.15
2023-02-08T13:39:02.328Z,15.03
2023-02-08T13:41:32.846Z,12.78
2023-02-08T13:44:03.177Z,12.33
2023-02-08T13:46:45.966Z,12.75
2023-02-08T13:49:46.254Z,15.56
2023-02-08T13:52:49.423Z,14.85
2023-02-08T13:55:50.827Z,13.21
2023-02-08T13:58:38.793Z,15.77
2023-02-08T14:01:18.633Z,14.46
2023-02-08T14:04:20.714Z,14.90
2023-02-08T14:06:55.222Z,15.71
2023-02-08T14:09:29.690Z,16.39
2023-02-08T14:12:02.944Z,15.05
2023-02-08T14:14:34.896Z,14.08
2023-02-08T14:17:24.212Z,15.05
2023-02-08T14:19:58.167Z,17.21
2023-02-08T14:22:28.759Z,12.44
2023-02-08T14:25:07.389Z,9.54
2023-02-08T14:27:39.570Z,11.19
2023-02-08T14:30:22.053Z,12.64
2023-02-08T14:32:53.442Z,14.21
2023-02-08T14:35:22.511Z,14.40
2023-02-08T14:37:55.861Z,14.31
2023-02-08T14:40:47.479Z,14.54
2023-02-08T14:43:30.606Z,15.01
2023-02-08T14:46:42.802Z,14.31
2023-02-08T14:49:12.426Z,15.16
2023-02-08T14:51:41.741Z,16.06
2023-02-08T14:54:19.743Z,16.94
2023-02-08T14:56:54.579Z,16.39
2023-02-08T14:59:26.866Z,16.88
2023-02-08T15:01:58.906Z,16.82
2023-02-08T15:04:26.558Z,14.65
2023-02-08T15:07:15.869Z,15.02
2023-02-08T15:09:44.975Z,14.38
2023-02-08T15:12:18.389Z,14.37
2023-02-08T15:14:45.595Z,14.65
2023-02-08T15:17:34.136Z,15.97
2023-02-08T15:20:02.307Z,14.78
2023-02-08T15:22:35.035Z,13.48
2023-02-08T15:25:20.073Z,15.06
2023-02-08T15:27:48.910Z,14.43
2023-02-08T15:30:31.823Z,14.15
2023-02-08T15:33:01.018Z,16.01
2023-02-08T15:35:31.473Z,15.45
2023-02-08T15:37:58.538Z,15.30
2023-02-08T15:40:28.748Z,12.74
2023-02-08T15:43:03.772Z,13.70
2023-02-08T15:45:31.010Z,12.01
2023-02-08T15:48:00.672Z,12.92
2023-02-08T15:50:30.958Z,13.31
2023-02-08T15:53:00.398Z,12.38
2023-02-08T15:55:31.012Z,12.85
2023-02-08T15:58:02.480Z,11.25
2023-02-08T16:00:33.064Z,12.52
2023-02-08T16:03:04.667Z,11.24
2023-02-08T16:05:32.660Z,12.07
2023-02-08T16:08:01.296Z,12.16
2023-02-08T16:10:31.968Z,12.82
2023-02-08T16:13:00.980Z,11.77
2023-02-08T16:15:42.445Z,11.09
2023-02-08T16:18:38.523Z,10.03
2023-02-08T16:21:17.805Z,9.97
2023-02-08T16:23:50.029Z,10.81
2023-02-08T16:26:21.023Z,10.31
2023-02-08T16:28:58.176Z,10.44
2023-02-08T16:31:27.094Z,9.85
2023-02-08T16:34:00.982Z,9.70
2023-02-08T16:36:32.609Z,8.11
2023-02-08T16:39:23.187Z,7.61
2023-02-08T16:42:14.397Z,8.64
2023-02-08T16:44:58.943Z,8.19
2023-02-08T16:47:27.544Z,9.72
2023-02-08T16:49:55.638Z,9.10
2023-02-08T16:52:22.352Z,10.12
2023-02-08T16:54:49.126Z,9.87
2023-02-08T16:57:15.894Z,8.48
2023-02-08T16:59:42.623Z,9.43
2023-02-08T17:02:12.262Z,9.58
2023-02-08T17:04:39.512Z,9.17
2023-02-08T17:07:15.151Z,9.69
2023-02-08T17:09:42.248Z,11.78
2023-02-08T17:12:21.573Z,10.92
2023-02-08T17:14:49.967Z,9.83
2023-02-08T17:17:17.081Z,8.86
2023-02-08T17:19:44.229Z,8.17
2023-02-08T17:22:13.038Z,8.30
2023-02-08T17:24:39.842Z,8.95
2023-02-08T17:27:06.677Z,11.19
2023-02-08T17:29:33.561Z,12.58
2023-02-08T17:32:00.290Z,11.43
2023-02-08T17:34:26.993Z,12.33
2023-02-08T17:36:53.848Z,11.34
2023-02-08T17:39:21.949Z,11.57
2023-02-08T17:41:48.856Z,12.30
2023-02-08T17:44:15.585Z,13.34
2023-02-08T17:46:42.645Z,12.30
2023-02-08T17:49:09.498Z,12.74
2023-02-08T17:51:36.244Z,11.01
2023-02-08T17:54:04.092Z,10.41
2023-02-08T17:56:32.383Z,9.77
2023-02-08T17:58:59.188Z,9.36
2023-02-08T18:01:27.381Z,9.89
2023-02-08T18:03:54.192Z,9.55
2023-02-08T18:06:21.832Z,9.43
2023-02-08T18:08:48.577Z,9.78
2023-02-08T18:11:17.749Z,10.04
2023-02-08T18:13:48.058Z,8.92
2023-02-08T18:16:17.362Z,9.89
2023-02-08T18:18:44.380Z,11.40
2023-02-08T18:21:12.365Z,10.36
2023-02-08T18:23:39.213Z,10.26
2023-02-08T18:26:07.537Z,9.76
2023-02-08T18:28:34.377Z,10.51
2023-02-08T18:31:03.998Z,9.55
2023-02-08T18:33:31.111Z,10.11
2023-02-08T18:35:57.857Z,20.47
2023-02-08T18:38:24.654Z,16.93
2023-02-08T18:40:51.821Z,14.71
2023-02-08T18:43:18.994Z,15.32
2023-02-08T18:45:46.100Z,14.17
2023-02-08T18:48:14.336Z,11.62
2023-02-08T18:50:41.047Z,10.89
2023-02-08T18:53:07.818Z,10.79
2023-02-08T18:55:34.556Z,12.47
2023-02-08T18:58:01.360Z,12.73
2023-02-08T19:00:28.205Z,12.34
2023-02-08T19:02:54.928Z,12.09
2023-02-08T19:05:23.071Z,10.36
2023-02-08T19:07:49.788Z,10.04
2023-02-08T19:10:16.603Z,8.36
2023-02-08T19:12:43.581Z,7.56
2023-02-08T19:15:10.307Z,7.99
2023-02-08T19:17:37.116Z,7.04
2023-02-08T19:20:04.293Z,6.61
2023-02-08T19:22:32.582Z,5.69
2023-02-08T19:24:59.391Z,6.16
2023-02-08T19:27:26.118Z,4.52
2023-02-08T19:29:52.870Z,5.37
2023-02-08T19:32:19.746Z,4.69
2023-02-08T19:34:46.500Z,5.25
2023-02-08T19:37:13.307Z,5.27
2023-02-08T19:39:41.433Z,8.51
2023-02-08T19:42:08.200Z,8.74
2023-02-08T19:44:34.934Z,9.57
2023-02-08T19:47:01.632Z,9.28
2023-02-08T19:49:28.902Z,9.47
2023-02-08T19:51:56.230Z,10.03
2023-02-08T19:54:23.681Z,10.39
2023-02-08T19:56:51.818Z,10.21
2023-02-08T19:59:20.532Z,10.88
2023-02-08T20:01:47.705Z,10.87
2023-02-08T20:04:15.020Z,10.95
2023-02-08T20:06:42.368Z,14.00
2023-02-08T20:09:09.093Z,12.31
2023-02-08T20:11:45.168Z,12.91
2023-02-08T20:14:23.531Z,13.05
2023-02-08T20:16:50.422Z,11.96
2023-02-08T20:19:17.705Z,12.86
2023-02-08T20:21:45.419Z,12.71
2023-02-08T20:24:12.537Z,12.87
2023-02-08T20:26:41.879Z,13.53
2023-02-08T20:29:08.939Z,14.76
2023-02-08T20:31:39.795Z,16.34
2023-02-08T20:34:08.437Z,15.13
2023-02-08T20:36:37.163Z,16.22
2023-02-08T20:39:04.389Z,15.18
2023-02-08T20:41:31.357Z,14.72
2023-02-08T20:43:58.393Z,16.32
2023-02-08T20:46:27.142Z,16.10
2023-02-08T20:48:56.743Z,15.41
2023-02-08T20:51:27.170Z,15.45
2023-02-08T20:53:55.093Z,14.84
2023-02-08T20:56:24.146Z,14.38
2023-02-08T20:58:51.573Z,13.27
2023-02-08T21:01:20.958Z,13.65
2023-02-08T21:03:48.164Z,12.89
2023-02-08T21:06:18.821Z,12.88
2023-02-08T21:08:46.397Z,13.25
2023-02-08T21:11:13.134Z,13.77
2023-02-08T21:13:39.860Z,13.12
2023-02-08T21:16:07.149Z,13.46
2023-02-08T21:18:34.493Z,14.73
2023-02-08T21:21:01.564Z,14.25
2023-02-08T21:23:29.996Z,13.86
2023-02-08T21:25:58.378Z,15.64
2023-02-08T21:28:25.380Z,15.05
2023-02-08T21:30:56.589Z,14.96
2023-02-08T21:33:23.604Z,15.45
2023-02-08T21:35:50.353Z,14.10
2023-02-08T21:38:17.305Z,13.97
2023-02-08T21:40:45.771Z,14.75
2023-02-08T21:43:12.792Z,16.33
2023-02-08T21:45:40.085Z,15.70
2023-02-08T21:48:07.003Z,13.67
2023-02-08T21:50:33.773Z,13.04
2023-02-08T21:53:00.597Z,13.48
2023-02-08T21:55:27.363Z,13.91
2023-02-08T21:57:55.604Z,12.86
2023-02-08T22:00:22.376Z,12.60
2023-02-08T22:02:49.173Z,11.64
2023-02-08T22:05:16.100Z,15.61
2023-02-08T22:07:44.799Z,14.46
2023-02-08T22:10:13.384Z,13.73
2023-02-08T22:12:40.519Z,12.24
2023-02-08T22:15:09.947Z,9.54
2023-02-08T22:17:36.813Z,8.34
2023-02-08T22:20:04.065Z,8.26
2023-02-08T22:22:30.973Z,7.26
2023-02-08T22:24:57.808Z,9.01
2023-02-08T22:27:24.928Z,9.93
2023-02-08T22:29:51.714Z,10.15
2023-02-08T22:32:20.171Z,10.24
2023-02-08T22:34:48.053Z,7.51
2023-02-08T22:37:15.629Z,9.07
2023-02-08T22:39:42.635Z,7.16
2023-02-08T22:42:09.966Z,6.06
2023-02-08T22:44:37.207Z,6.32
2023-02-08T22:47:05.400Z,6.14
2023-02-08T22:49:34.106Z,5.60
2023-02-08T22:52:01.569Z,4.81
2023-02-08T22:54:28.373Z,4.61
2023-02-08T22:56:55.099Z,4.65
2023-02-08T22:59:21.919Z,4.19
2023-02-08T23:01:48.806Z,4.44
2023-02-08T23:04:15.581Z,3.92
2023-02-08T23:06:43.774Z,2.94
2023-02-08T23:09:12.044Z,3.75
2023-02-08T23:11:38.826Z,4.43
2023-02-08T23:14:05.552Z,4.09
2023-02-08T23:16:32.458Z,4.90
2023-02-08T23:18:59.472Z,4.41
2023-02-08T23:21:26.428Z,4.90
2023-02-08T23:23:54.552Z,5.90
2023-02-08T23:26:21.699Z,7.43
2023-02-08T23:28:50.958Z,8.18
2023-02-08T23:31:18.503Z,7.27
2023-02-08T23:33:45.450Z,7.18
2023-02-08T23:36:15.450Z,8.48
2023-02-08T23:38:42.961Z,8.72
2023-02-08T23:41:12.780Z,8.53
2023-02-08T23:43:39.725Z,7.88
2023-02-08T23:46:07.448Z,7.02
2023-02-08T23:48:34.712Z,7.92
2023-02-08T23:51:03.081Z,6.73
2023-02-08T23:53:31.081Z,6.25
2023-02-08T23:56:14.142Z,6.65
2023-02-08T23:58:41.060Z,5.98
